sensor_id;sensor_type;location;lat;lon;timestamp;pressure;altitude;pressure_sealevel;temperature;humidity
70103;BME280;57470;50.034;15.256;2023-03-30T00:01:20;99335.72;;;6.24;91.28
70103;BME280;57470;50.034;15.256;2023-03-30T00:03:46;99333.00;;;6.25;90.92
70103;BME280;57470;50.034;15.256;2023-03-30T00:06:14;99323.75;;;6.34;90.60
70103;BME280;57470;50.034;15.256;2023-03-30T00:08:47;99334.69;;;6.26;90.91
70103;BME280;57470;50.034;15.256;2023-03-30T00:11:13;99338.31;;;6.41;90.75
70103;BME280;57470;50.034;15.256;2023-03-30T00:13:42;99332.97;;;6.58;89.85
70103;BME280;57470;50.034;15.256;2023-03-30T00:16:11;99325.88;;;6.43;89.81
70103;BME280;57470;50.034;15.256;2023-03-30T00:18:37;99320.03;;;6.21;90.88
70103;BME280;57470;50.034;15.256;2023-03-30T00:21:07;99316.91;;;6.30;90.88
70103;BME280;57470;50.034;15.256;2023-03-30T00:23:34;99318.13;;;6.07;91.39
70103;BME280;57470;50.034;15.256;2023-03-30T00:25:59;99318.41;;;6.18;91.57
70103;BME280;57470;50.034;15.256;2023-03-30T00:28:25;99310.88;;;6.11;91.42
70103;BME280;57470;50.034;15.256;2023-03-30T00:30:51;99307.28;;;5.96;91.97
70103;BME280;57470;50.034;15.256;2023-03-30T00:33:18;99304.22;;;6.03;92.54
70103;BME280;57470;50.034;15.256;2023-03-30T00:35:54;99298.50;;;5.95;91.98
70103;BME280;57470;50.034;15.256;2023-03-30T00:38:20;99305.31;;;5.99;92.03
70103;BME280;57470;50.034;15.256;2023-03-30T00:40:57;99298.78;;;6.07;92.20
70103;BME280;57470;50.034;15.256;2023-03-30T00:43:23;99303.44;;;6.01;92.01
70103;BME280;57470;50.034;15.256;2023-03-30T00:45:49;99308.53;;;6.22;91.69
70103;BME280;57470;50.034;15.256;2023-03-30T00:48:21;99307.22;;;6.13;92.11
70103;BME280;57470;50.034;15.256;2023-03-30T00:50:53;99305.63;;;6.26;91.36
70103;BME280;57470;50.034;15.256;2023-03-30T00:53:32;99286.34;;;6.42;91.43
70103;BME280;57470;50.034;15.256;2023-03-30T00:56:00;99279.84;;;6.31;91.31
70103;BME280;57470;50.034;15.256;2023-03-30T00:58:27;99288.69;;;6.15;91.84
70103;BME280;57470;50.034;15.256;2023-03-30T01:00:54;99294.84;;;6.31;91.77
70103;BME280;57470;50.034;15.256;2023-03-30T01:03:31;99281.19;;;6.23;91.83
70103;BME280;57470;50.034;15.256;2023-03-30T01:05:59;99283.50;;;6.29;91.49
70103;BME280;57470;50.034;15.256;2023-03-30T01:08:26;99288.19;;;6.39;91.08
70103;BME280;57470;50.034;15.256;2023-03-30T01:10:57;99289.47;;;6.48;90.88
70103;BME280;57470;50.034;15.256;2023-03-30T01:13:26;99290.97;;;6.69;89.99
70103;BME280;57470;50.034;15.256;2023-03-30T01:15:59;99292.72;;;6.53;90.11
70103;BME280;57470;50.034;15.256;2023-03-30T01:35:18;99321.63;;;6.72;93.00
70103;BME280;57470;50.034;15.256;2023-03-30T01:44:00;99288.22;;;6.87;94.32
70103;BME280;57470;50.034;15.256;2023-03-30T01:46:49;99274.56;;;6.94;94.55
70103;BME280;57470;50.034;15.256;2023-03-30T01:49:29;99279.25;;;6.73;96.14
70103;BME280;57470;50.034;15.256;2023-03-30T01:52:05;99279.69;;;6.82;96.33
70103;BME280;57470;50.034;15.256;2023-03-30T01:54:40;99295.63;;;6.96;96.44
70103;BME280;57470;50.034;15.256;2023-03-30T01:57:25;99309.63;;;6.98;96.15
70103;BME280;57470;50.034;15.256;2023-03-30T01:59:57;99304.59;;;6.93;96.61
70103;BME280;57470;50.034;15.256;2023-03-30T02:02:29;99301.84;;;6.95;97.11
70103;BME280;57470;50.034;15.256;2023-03-30T02:04:59;99311.72;;;7.07;97.04
70103;BME280;57470;50.034;15.256;2023-03-30T02:07:30;99300.22;;;6.92;97.42
70103;BME280;57470;50.034;15.256;2023-03-30T02:10:02;99297.66;;;7.06;96.70
70103;BME280;57470;50.034;15.256;2023-03-30T02:12:31;99282.69;;;6.75;98.48
70103;BME280;57470;50.034;15.256;2023-03-30T02:15:02;99287.59;;;6.82;99.08
70103;BME280;57470;50.034;15.256;2023-03-30T02:17:31;99285.81;;;6.82;98.70
70103;BME280;57470;50.034;15.256;2023-03-30T02:19:58;99260.59;;;6.45;100.00
70103;BME280;57470;50.034;15.256;2023-03-30T02:22:27;99241.16;;;6.15;100.00
70103;BME280;57470;50.034;15.256;2023-03-30T02:24:55;99255.06;;;6.34;100.00
70103;BME280;57470;50.034;15.256;2023-03-30T02:27:24;99262.44;;;6.27;100.00
70103;BME280;57470;50.034;15.256;2023-03-30T02:29:52;99256.00;;;6.49;100.00
70103;BME280;57470;50.034;15.256;2023-03-30T02:32:32;99245.34;;;6.50;100.00
70103;BME280;57470;50.034;15.256;2023-03-30T02:35:56;99246.94;;;6.37;100.00
70103;BME280;57470;50.034;15.256;2023-03-30T02:41:27;99237.00;;;6.42;100.00
70103;BME280;57470;50.034;15.256;2023-03-30T02:50:20;99231.88;;;6.39;100.00
70103;BME280;57470;50.034;15.256;2023-03-30T02:55:34;99217.25;;;6.00;100.00
70103;BME280;57470;50.034;15.256;2023-03-30T03:00:46;99219.91;;;5.83;100.00
70103;BME280;57470;50.034;15.256;2023-03-30T03:03:22;99211.81;;;6.03;100.00
70103;BME280;57470;50.034;15.256;2023-03-30T03:05:50;99213.31;;;6.25;100.00
70103;BME280;57470;50.034;15.256;2023-03-30T03:08:19;99196.50;;;6.10;100.00
70103;BME280;57470;50.034;15.256;2023-03-30T03:10:45;99181.84;;;6.05;100.00
70103;BME280;57470;50.034;15.256;2023-03-30T03:13:11;99181.44;;;5.96;100.00
70103;BME280;57470;50.034;15.256;2023-03-30T03:15:38;99169.25;;;5.94;100.00
70103;BME280;57470;50.034;15.256;2023-03-30T03:18:04;99154.69;;;6.02;100.00
70103;BME280;57470;50.034;15.256;2023-03-30T03:20:30;99148.28;;;5.91;100.00
70103;BME280;57470;50.034;15.256;2023-03-30T03:22:55;99136.69;;;6.09;100.00
70103;BME280;57470;50.034;15.256;2023-03-30T03:25:21;99135.84;;;5.93;100.00
70103;BME280;57470;50.034;15.256;2023-03-30T03:27:46;99138.50;;;5.93;100.00
70103;BME280;57470;50.034;15.256;2023-03-30T03:30:12;99136.03;;;5.90;100.00
70103;BME280;57470;50.034;15.256;2023-03-30T03:32:37;99128.53;;;6.14;100.00
70103;BME280;57470;50.034;15.256;2023-03-30T03:35:03;99133.22;;;6.09;100.00
70103;BME280;57470;50.034;15.256;2023-03-30T03:37:28;99122.41;;;5.97;100.00
70103;BME280;57470;50.034;15.256;2023-03-30T03:39:53;99117.16;;;5.97;100.00
70103;BME280;57470;50.034;15.256;2023-03-30T03:42:19;99107.94;;;6.05;100.00
70103;BME280;57470;50.034;15.256;2023-03-30T03:44:45;99101.13;;;6.00;100.00
70103;BME280;57470;50.034;15.256;2023-03-30T03:47:10;99098.38;;;5.86;100.00
70103;BME280;57470;50.034;15.256;2023-03-30T03:49:37;99105.13;;;5.92;100.00
70103;BME280;57470;50.034;15.256;2023-03-30T03:52:03;99096.03;;;5.97;100.00
70103;BME280;57470;50.034;15.256;2023-03-30T03:54:28;99103.25;;;6.10;100.00
70103;BME280;57470;50.034;15.256;2023-03-30T03:56:54;99098.50;;;6.16;100.00
70103;BME280;57470;50.034;15.256;2023-03-30T03:59:19;99102.19;;;6.28;100.00
70103;BME280;57470;50.034;15.256;2023-03-30T04:01:44;99104.94;;;6.11;100.00
70103;BME280;57470;50.034;15.256;2023-03-30T04:04:10;99118.47;;;6.36;100.00
70103;BME280;57470;50.034;15.256;2023-03-30T04:06:36;99125.59;;;6.50;100.00
70103;BME280;57470;50.034;15.256;2023-03-30T04:09:01;99115.28;;;6.45;100.00
70103;BME280;57470;50.034;15.256;2023-03-30T04:11:26;99121.97;;;6.21;100.00
70103;BME280;57470;50.034;15.256;2023-03-30T04:13:52;99109.44;;;6.40;100.00
70103;BME280;57470;50.034;15.256;2023-03-30T04:16:17;99103.72;;;6.48;100.00
70103;BME280;57470;50.034;15.256;2023-03-30T04:18:42;99098.88;;;6.40;100.00
70103;BME280;57470;50.034;15.256;2023-03-30T04:21:08;99101.53;;;6.24;100.00
70103;BME280;57470;50.034;15.256;2023-03-30T04:23:37;99096.22;;;6.40;100.00
70103;BME280;57470;50.034;15.256;2023-03-30T04:26:06;99082.38;;;6.21;100.00
70103;BME280;57470;50.034;15.256;2023-03-30T04:28:33;99083.91;;;6.25;100.00
70103;BME280;57470;50.034;15.256;2023-03-30T04:31:01;99073.78;;;6.17;100.00
70103;BME280;57470;50.034;15.256;2023-03-30T04:33:26;99071.22;;;6.16;100.00
70103;BME280;57470;50.034;15.256;2023-03-30T04:35:52;99053.69;;;6.15;100.00
70103;BME280;57470;50.034;15.256;2023-03-30T04:38:18;99060.06;;;6.11;100.00
70103;BME280;57470;50.034;15.256;2023-03-30T04:40:49;99055.56;;;6.13;100.00
70103;BME280;57470;50.034;15.256;2023-03-30T04:43:18;99053.28;;;6.07;100.00
70103;BME280;57470;50.034;15.256;2023-03-30T04:45:51;99057.19;;;6.15;100.00
70103;BME280;57470;50.034;15.256;2023-03-30T04:48:18;99048.63;;;6.26;100.00
70103;BME280;57470;50.034;15.256;2023-03-30T04:50:45;99052.84;;;6.14;100.00
70103;BME280;57470;50.034;15.256;2023-03-30T04:53:11;99054.28;;;6.04;100.00
70103;BME280;57470;50.034;15.256;2023-03-30T04:55:39;99050.78;;;6.03;100.00
70103;BME280;57470;50.034;15.256;2023-03-30T04:58:04;99046.38;;;6.04;100.00
70103;BME280;57470;50.034;15.256;2023-03-30T05:00:30;99065.78;;;6.03;100.00
70103;BME280;57470;50.034;15.256;2023-03-30T05:02:56;99061.84;;;6.10;100.00
70103;BME280;57470;50.034;15.256;2023-03-30T05:05:21;99063.63;;;6.10;100.00
70103;BME280;57470;50.034;15.256;2023-03-30T05:07:46;99064.50;;;6.10;100.00
70103;BME280;57470;50.034;15.256;2023-03-30T05:10:12;99068.59;;;6.16;100.00
70103;BME280;57470;50.034;15.256;2023-03-30T05:12:38;99059.13;;;6.12;100.00
70103;BME280;57470;50.034;15.256;2023-03-30T05:15:04;99060.38;;;6.20;100.00
70103;BME280;57470;50.034;15.256;2023-03-30T05:17:33;99055.06;;;6.06;100.00
70103;BME280;57470;50.034;15.256;2023-03-30T05:19:59;99054.44;;;6.17;100.00
70103;BME280;57470;50.034;15.256;2023-03-30T05:22:24;99049.66;;;6.23;100.00
70103;BME280;57470;50.034;15.256;2023-03-30T05:24:49;99066.59;;;6.19;100.00
70103;BME280;57470;50.034;15.256;2023-03-30T05:27:16;99070.09;;;6.20;100.00
70103;BME280;57470;50.034;15.256;2023-03-30T05:29:42;99071.56;;;6.25;100.00
70103;BME280;57470;50.034;15.256;2023-03-30T05:32:07;99077.97;;;6.35;100.00
70103;BME280;57470;50.034;15.256;2023-03-30T05:34:33;99077.81;;;6.38;100.00
70103;BME280;57470;50.034;15.256;2023-03-30T05:36:59;99068.88;;;6.41;100.00
70103;BME280;57470;50.034;15.256;2023-03-30T05:39:24;99073.84;;;6.31;100.00
70103;BME280;57470;50.034;15.256;2023-03-30T05:41:49;99065.53;;;6.37;100.00
70103;BME280;57470;50.034;15.256;2023-03-30T05:44:15;99049.22;;;6.31;100.00
70103;BME280;57470;50.034;15.256;2023-03-30T05:46:40;99056.84;;;6.35;100.00
70103;BME280;57470;50.034;15.256;2023-03-30T05:49:06;99056.16;;;6.48;100.00
70103;BME280;57470;50.034;15.256;2023-03-30T05:51:31;99071.56;;;6.55;100.00
70103;BME280;57470;50.034;15.256;2023-03-30T05:53:57;99079.31;;;6.58;100.00
70103;BME280;57470;50.034;15.256;2023-03-30T05:56:22;99073.63;;;6.50;100.00
70103;BME280;57470;50.034;15.256;2023-03-30T05:58:49;99071.38;;;6.58;100.00
70103;BME280;57470;50.034;15.256;2023-03-30T06:01:15;99072.59;;;6.53;100.00
70103;BME280;57470;50.034;15.256;2023-03-30T06:03:40;99072.47;;;6.70;100.00
70103;BME280;57470;50.034;15.256;2023-03-30T06:06:06;99066.81;;;6.46;100.00
70103;BME280;57470;50.034;15.256;2023-03-30T06:08:32;99071.63;;;6.54;100.00
70103;BME280;57470;50.034;15.256;2023-03-30T06:10:57;99087.31;;;7.01;100.00
70103;BME280;57470;50.034;15.256;2023-03-30T06:13:24;99082.56;;;6.77;100.00
70103;BME280;57470;50.034;15.256;2023-03-30T06:15:49;99068.75;;;6.72;100.00
70103;BME280;57470;50.034;15.256;2023-03-30T06:18:15;99074.81;;;6.74;100.00
70103;BME280;57470;50.034;15.256;2023-03-30T06:20:40;99070.81;;;7.11;100.00
70103;BME280;57470;50.034;15.256;2023-03-30T06:23:06;99068.97;;;7.83;100.00
70103;BME280;57470;50.034;15.256;2023-03-30T06:25:31;99064.34;;;7.86;100.00
70103;BME280;57470;50.034;15.256;2023-03-30T06:27:56;99050.53;;;7.81;100.00
70103;BME280;57470;50.034;15.256;2023-03-30T06:30:22;99040.78;;;8.23;100.00
70103;BME280;57470;50.034;15.256;2023-03-30T06:32:48;99050.69;;;8.98;99.04
70103;BME280;57470;50.034;15.256;2023-03-30T06:35:13;99047.53;;;8.93;96.58
70103;BME280;57470;50.034;15.256;2023-03-30T06:37:40;99024.78;;;8.64;98.78
70103;BME280;57470;50.034;15.256;2023-03-30T06:40:06;99031.78;;;8.78;98.91
70103;BME280;57470;50.034;15.256;2023-03-30T06:42:42;99037.31;;;9.13;96.26
70103;BME280;57470;50.034;15.256;2023-03-30T06:45:09;99036.53;;;9.49;96.07
70103;BME280;57470;50.034;15.256;2023-03-30T06:47:35;99037.53;;;9.22;95.26
70103;BME280;57470;50.034;15.256;2023-03-30T06:50:01;99033.25;;;9.45;95.12
70103;BME280;57470;50.034;15.256;2023-03-30T06:52:26;99039.66;;;9.17;95.64
70103;BME280;57470;50.034;15.256;2023-03-30T06:54:51;99029.81;;;8.94;97.34
70103;BME280;57470;50.034;15.256;2023-03-30T06:57:17;99030.97;;;8.90;96.26
70103;BME280;57470;50.034;15.256;2023-03-30T06:59:42;99029.13;;;8.78;96.77
70103;BME280;57470;50.034;15.256;2023-03-30T07:02:12;99018.63;;;8.63;97.93
70103;BME280;57470;50.034;15.256;2023-03-30T07:04:38;99023.72;;;8.67;98.28
70103;BME280;57470;50.034;15.256;2023-03-30T07:07:03;99039.13;;;8.74;98.90
70103;BME280;57470;50.034;15.256;2023-03-30T07:09:28;99044.94;;;9.04;98.05
70103;BME280;57470;50.034;15.256;2023-03-30T07:11:54;99042.84;;;9.10;97.99
70103;BME280;57470;50.034;15.256;2023-03-30T07:14:19;99038.66;;;9.56;96.73
70103;BME280;57470;50.034;15.256;2023-03-30T07:16:45;99054.16;;;9.99;96.15
70103;BME280;57470;50.034;15.256;2023-03-30T07:19:12;99046.31;;;9.85;95.74
70103;BME280;57470;50.034;15.256;2023-03-30T07:21:37;99050.09;;;10.06;94.62
70103;BME280;57470;50.034;15.256;2023-03-30T07:24:03;99044.25;;;10.37;94.26
70103;BME280;57470;50.034;15.256;2023-03-30T07:26:29;99053.38;;;10.09;95.26
70103;BME280;57470;50.034;15.256;2023-03-30T07:28:55;99044.31;;;10.12;94.19
70103;BME280;57470;50.034;15.256;2023-03-30T07:31:22;99043.94;;;10.29;93.12
70103;BME280;57470;50.034;15.256;2023-03-30T07:33:48;99038.94;;;10.37;93.29
70103;BME280;57470;50.034;15.256;2023-03-30T07:36:14;99037.38;;;10.81;93.19
70103;BME280;57470;50.034;15.256;2023-03-30T07:38:39;99028.72;;;10.90;93.18
70103;BME280;57470;50.034;15.256;2023-03-30T07:41:07;99034.56;;;11.17;91.86
70103;BME280;57470;50.034;15.256;2023-03-30T07:43:32;99032.97;;;11.48;91.02
70103;BME280;57470;50.034;15.256;2023-03-30T07:45:58;99025.34;;;11.55;90.36
70103;BME280;57470;50.034;15.256;2023-03-30T07:48:24;99026.44;;;11.86;89.06
70103;BME280;57470;50.034;15.256;2023-03-30T07:50:49;99016.25;;;11.57;89.39
70103;BME280;57470;50.034;15.256;2023-03-30T07:53:16;99013.34;;;11.94;90.48
70103;BME280;57470;50.034;15.256;2023-03-30T07:55:41;99018.88;;;12.02;88.84
70103;BME280;57470;50.034;15.256;2023-03-30T07:58:08;99019.47;;;12.69;88.70
70103;BME280;57470;50.034;15.256;2023-03-30T08:00:33;99030.72;;;12.52;87.29
70103;BME280;57470;50.034;15.256;2023-03-30T08:02:58;99023.16;;;12.99;86.77
70103;BME280;57470;50.034;15.256;2023-03-30T08:05:24;99023.25;;;13.29;85.03
70103;BME280;57470;50.034;15.256;2023-03-30T08:07:49;99023.13;;;13.31;86.50
70103;BME280;57470;50.034;15.256;2023-03-30T08:10:15;99021.16;;;13.73;85.30
70103;BME280;57470;50.034;15.256;2023-03-30T08:12:40;99014.78;;;13.55;86.20
70103;BME280;57470;50.034;15.256;2023-03-30T08:15:06;99018.00;;;13.07;84.14
70103;BME280;57470;50.034;15.256;2023-03-30T08:17:32;99019.31;;;13.33;85.79
70103;BME280;57470;50.034;15.256;2023-03-30T08:19:57;99011.28;;;13.64;83.53
70103;BME280;57470;50.034;15.256;2023-03-30T08:22:23;99013.16;;;13.42;85.76
70103;BME280;57470;50.034;15.256;2023-03-30T08:24:48;98987.75;;;13.18;86.06
70103;BME280;57470;50.034;15.256;2023-03-30T08:27:14;98997.84;;;13.44;85.37
70103;BME280;57470;50.034;15.256;2023-03-30T08:29:39;98987.41;;;13.72;87.35
70103;BME280;57470;50.034;15.256;2023-03-30T08:32:05;98982.44;;;13.58;86.82
70103;BME280;57470;50.034;15.256;2023-03-30T08:34:31;98970.63;;;13.50;87.79
70103;BME280;57470;50.034;15.256;2023-03-30T08:36:56;98975.56;;;13.65;86.29
70103;BME280;57470;50.034;15.256;2023-03-30T08:39:22;98959.94;;;13.50;87.70
70103;BME280;57470;50.034;15.256;2023-03-30T08:42:10;98953.75;;;13.50;87.61
70103;BME280;57470;50.034;15.256;2023-03-30T08:44:43;98950.19;;;13.40;87.51
70103;BME280;57470;50.034;15.256;2023-03-30T08:47:12;98933.56;;;13.86;86.20
70103;BME280;57470;50.034;15.256;2023-03-30T08:49:56;98931.31;;;13.91;85.34
70103;BME280;57470;50.034;15.256;2023-03-30T08:52:24;98921.63;;;14.48;84.99
70103;BME280;57470;50.034;15.256;2023-03-30T08:54:50;98914.44;;;14.39;84.70
70103;BME280;57470;50.034;15.256;2023-03-30T09:02:27;98910.78;;;14.49;85.35
70103;BME280;57470;50.034;15.256;2023-03-30T09:05:28;98907.66;;;14.54;84.67
70103;BME280;57470;50.034;15.256;2023-03-30T09:07:56;98895.72;;;14.85;84.03
70103;BME280;57470;50.034;15.256;2023-03-30T09:10:26;98896.41;;;14.41;84.44
70103;BME280;57470;50.034;15.256;2023-03-30T09:12:56;98884.44;;;14.45;85.49
70103;BME280;57470;50.034;15.256;2023-03-30T09:15:32;98882.06;;;14.22;85.26
70103;BME280;57470;50.034;15.256;2023-03-30T09:20:42;98886.53;;;14.41;85.57
70103;BME280;57470;50.034;15.256;2023-03-30T09:23:13;98890.13;;;14.69;84.86
70103;BME280;57470;50.034;15.256;2023-03-30T09:28:27;98874.28;;;14.58;85.56
70103;BME280;57470;50.034;15.256;2023-03-30T09:31:01;98870.94;;;14.08;86.52
70103;BME280;57470;50.034;15.256;2023-03-30T09:36:46;98869.78;;;14.30;87.71
70103;BME280;57470;50.034;15.256;2023-03-30T09:38:51;98866.28;;;13.90;88.13
70103;BME280;57470;50.034;15.256;2023-03-30T09:41:45;98859.25;;;13.80;88.09
70103;BME280;57470;50.034;15.256;2023-03-30T09:44:20;98850.69;;;13.96;87.38
70103;BME280;57470;50.034;15.256;2023-03-30T09:46:47;98856.19;;;13.94;86.75
70103;BME280;57470;50.034;15.256;2023-03-30T09:49:15;98871.38;;;13.94;87.92
70103;BME280;57470;50.034;15.256;2023-03-30T09:52:04;98869.94;;;14.09;86.75
70103;BME280;57470;50.034;15.256;2023-03-30T09:54:38;98870.53;;;13.83;87.46
70103;BME280;57470;50.034;15.256;2023-03-30T09:57:19;98869.53;;;13.84;87.54
70103;BME280;57470;50.034;15.256;2023-03-30T09:59:46;98869.81;;;13.72;88.07
70103;BME280;57470;50.034;15.256;2023-03-30T10:05:00;98879.09;;;13.77;89.69
70103;BME280;57470;50.034;15.256;2023-03-30T10:07:35;98891.88;;;13.55;91.17
70103;BME280;57470;50.034;15.256;2023-03-30T10:10:25;98893.59;;;13.75;92.29
70103;BME280;57470;50.034;15.256;2023-03-30T10:13:24;98902.31;;;13.86;92.02
70103;BME280;57470;50.034;15.256;2023-03-30T10:15:51;98905.66;;;13.69;92.86
70103;BME280;57470;50.034;15.256;2023-03-30T10:20:46;98918.06;;;13.99;92.76
70103;BME280;57470;50.034;15.256;2023-03-30T10:23:16;98922.28;;;13.73;94.63
70103;BME280;57470;50.034;15.256;2023-03-30T10:25:44;98927.28;;;13.47;96.13
70103;BME280;57470;50.034;15.256;2023-03-30T10:28:25;98917.16;;;13.41;97.57
70103;BME280;57470;50.034;15.256;2023-03-30T10:30:54;98912.66;;;13.51;97.76
70103;BME280;57470;50.034;15.256;2023-03-30T10:33:21;98912.38;;;13.54;97.36
70103;BME280;57470;50.034;15.256;2023-03-30T10:35:50;98911.84;;;13.50;98.72
70103;BME280;57470;50.034;15.256;2023-03-30T10:38:18;98919.69;;;13.52;98.88
70103;BME280;57470;50.034;15.256;2023-03-30T10:40:45;98924.53;;;13.68;98.34
70103;BME280;57470;50.034;15.256;2023-03-30T10:43:14;98934.91;;;13.71;99.02
70103;BME280;57470;50.034;15.256;2023-03-30T10:45:51;98946.19;;;13.74;98.79
70103;BME280;57470;50.034;15.256;2023-03-30T10:51:23;98979.31;;;13.52;99.27
70103;BME280;57470;50.034;15.256;2023-03-30T10:54:05;98972.75;;;13.26;100.00
70103;BME280;57470;50.034;15.256;2023-03-30T10:56:43;98987.09;;;13.25;100.00
70103;BME280;57470;50.034;15.256;2023-03-30T11:04:45;99003.66;;;12.77;100.00
70103;BME280;57470;50.034;15.256;2023-03-30T11:10:27;99014.63;;;12.63;100.00
70103;BME280;57470;50.034;15.256;2023-03-30T11:13:07;99017.66;;;12.70;100.00
70103;BME280;57470;50.034;15.256;2023-03-30T11:16:01;99016.06;;;12.47;100.00
70103;BME280;57470;50.034;15.256;2023-03-30T11:21:14;99030.56;;;12.33;100.00
70103;BME280;57470;50.034;15.256;2023-03-30T11:23:59;99029.19;;;12.38;100.00
70103;BME280;57470;50.034;15.256;2023-03-30T11:26:38;99036.13;;;12.30;100.00
70103;BME280;57470;50.034;15.256;2023-03-30T11:29:24;99039.69;;;12.19;100.00
70103;BME280;57470;50.034;15.256;2023-03-30T11:35:15;99044.28;;;12.17;100.00
70103;BME280;57470;50.034;15.256;2023-03-30T11:40:49;99034.94;;;12.23;100.00
70103;BME280;57470;50.034;15.256;2023-03-30T11:43:18;99037.81;;;12.31;100.00
70103;BME280;57470;50.034;15.256;2023-03-30T11:54:13;99026.63;;;12.69;100.00
70103;BME280;57470;50.034;15.256;2023-03-30T12:02:23;99018.81;;;12.56;100.00
70103;BME280;57470;50.034;15.256;2023-03-30T12:05:06;99007.22;;;12.46;100.00
70103;BME280;57470;50.034;15.256;2023-03-30T12:07:54;99002.59;;;12.48;100.00
70103;BME280;57470;50.034;15.256;2023-03-30T12:10:31;98998.56;;;12.74;100.00
70103;BME280;57470;50.034;15.256;2023-03-30T12:13:01;99000.34;;;12.85;100.00
70103;BME280;57470;50.034;15.256;2023-03-30T12:18:02;98983.66;;;12.72;100.00
70103;BME280;57470;50.034;15.256;2023-03-30T12:26:17;98978.13;;;12.85;100.00
70103;BME280;57470;50.034;15.256;2023-03-30T12:29:12;98974.25;;;12.68;100.00
70103;BME280;57470;50.034;15.256;2023-03-30T12:34:26;98961.22;;;12.33;100.00
70103;BME280;57470;50.034;15.256;2023-03-30T12:36:55;98943.47;;;12.43;100.00
70103;BME280;57470;50.034;15.256;2023-03-30T12:39:25;98931.16;;;12.31;100.00
70103;BME280;57470;50.034;15.256;2023-03-30T12:42:28;98920.41;;;12.21;100.00
70103;BME280;57470;50.034;15.256;2023-03-30T12:45:23;98900.53;;;12.46;100.00
70103;BME280;57470;50.034;15.256;2023-03-30T12:48:14;98894.94;;;12.28;100.00
70103;BME280;57470;50.034;15.256;2023-03-30T12:54:21;98893.06;;;12.40;100.00
70103;BME280;57470;50.034;15.256;2023-03-30T12:57:01;98888.75;;;12.69;100.00
70103;BME280;57470;50.034;15.256;2023-03-30T13:05:22;98888.41;;;13.14;100.00
70103;BME280;57470;50.034;15.256;2023-03-30T13:07:49;98892.69;;;13.45;100.00
70103;BME280;57470;50.034;15.256;2023-03-30T13:13:00;98876.69;;;13.65;100.00
70103;BME280;57470;50.034;15.256;2023-03-30T13:15:33;98872.78;;;13.69;100.00
70103;BME280;57470;50.034;15.256;2023-03-30T13:18:02;98867.09;;;13.52;100.00
70103;BME280;57470;50.034;15.256;2023-03-30T13:20:58;98865.31;;;13.72;100.00
70103;BME280;57470;50.034;15.256;2023-03-30T13:26:04;98845.72;;;13.52;100.00
70103;BME280;57470;50.034;15.256;2023-03-30T13:31:36;98842.72;;;14.33;100.00
70103;BME280;57470;50.034;15.256;2023-03-30T13:34:29;98828.59;;;14.03;100.00
70103;BME280;57470;50.034;15.256;2023-03-30T13:37:20;98818.03;;;13.73;100.00
70103;BME280;57470;50.034;15.256;2023-03-30T13:51:03;98777.59;;;14.05;100.00
70103;BME280;57470;50.034;15.256;2023-03-30T13:53:40;98775.97;;;13.94;100.00
70103;BME280;57470;50.034;15.256;2023-03-30T13:56:08;98778.75;;;14.02;100.00
70103;BME280;57470;50.034;15.256;2023-03-30T13:58:35;98763.13;;;13.98;100.00
70103;BME280;57470;50.034;15.256;2023-03-30T14:01:06;98767.91;;;14.13;100.00
70103;BME280;57470;50.034;15.256;2023-03-30T14:03:46;98751.94;;;13.75;100.00
70103;BME280;57470;50.034;15.256;2023-03-30T14:08:40;98750.56;;;14.17;100.00
70103;BME280;57470;50.034;15.256;2023-03-30T14:11:20;98751.56;;;14.07;100.00
70103;BME280;57470;50.034;15.256;2023-03-30T14:13:51;98748.28;;;13.76;100.00
70103;BME280;57470;50.034;15.256;2023-03-30T14:16:20;98740.25;;;13.85;100.00
70103;BME280;57470;50.034;15.256;2023-03-30T14:18:46;98753.41;;;14.06;100.00
70103;BME280;57470;50.034;15.256;2023-03-30T14:21:16;98760.59;;;14.06;100.00
70103;BME280;57470;50.034;15.256;2023-03-30T14:23:52;98753.00;;;14.01;100.00
70103;BME280;57470;50.034;15.256;2023-03-30T14:26:24;98736.41;;;13.88;100.00
70103;BME280;57470;50.034;15.256;2023-03-30T14:28:58;98724.72;;;13.99;100.00
70103;BME280;57470;50.034;15.256;2023-03-30T14:31:37;98731.13;;;14.25;100.00
70103;BME280;57470;50.034;15.256;2023-03-30T14:36:47;98748.66;;;14.00;100.00
70103;BME280;57470;50.034;15.256;2023-03-30T14:39:13;98735.41;;;14.08;100.00
70103;BME280;57470;50.034;15.256;2023-03-30T14:41:39;98723.25;;;14.14;100.00
70103;BME280;57470;50.034;15.256;2023-03-30T14:44:06;98724.41;;;14.11;100.00
70103;BME280;57470;50.034;15.256;2023-03-30T14:46:38;98733.00;;;14.05;100.00
70103;BME280;57470;50.034;15.256;2023-03-30T14:49:07;98738.13;;;14.36;100.00
70103;BME280;57470;50.034;15.256;2023-03-30T14:51:40;98732.16;;;14.51;100.00
70103;BME280;57470;50.034;15.256;2023-03-30T14:54:11;98728.53;;;14.43;100.00
70103;BME280;57470;50.034;15.256;2023-03-30T14:56:38;98721.38;;;14.34;100.00
70103;BME280;57470;50.034;15.256;2023-03-30T14:59:05;98717.84;;;14.33;100.00
70103;BME280;57470;50.034;15.256;2023-03-30T15:01:32;98713.69;;;14.21;100.00
70103;BME280;57470;50.034;15.256;2023-03-30T15:04:05;98711.75;;;14.13;100.00
70103;BME280;57470;50.034;15.256;2023-03-30T15:06:32;98713.78;;;14.29;100.00
70103;BME280;57470;50.034;15.256;2023-03-30T15:09:02;98710.75;;;14.51;100.00
70103;BME280;57470;50.034;15.256;2023-03-30T15:11:30;98711.09;;;13.92;100.00
70103;BME280;57470;50.034;15.256;2023-03-30T15:14:00;98715.81;;;14.17;99.30
70103;BME280;57470;50.034;15.256;2023-03-30T15:16:31;98728.91;;;14.11;99.17
70103;BME280;57470;50.034;15.256;2023-03-30T15:19:01;98713.81;;;13.73;100.00
70103;BME280;57470;50.034;15.256;2023-03-30T15:21:30;98710.75;;;13.48;100.00